Airfield :
LOGIN :

Register | Disclaimer

   EN    FR    IT 

 










Legend :    VFR   Marginal VFR   IFR   Intensive IFR   Very Intensive IFR
Visi :
Ceiling :
>= 8 km
>= 3000ft
5 to 8 km
1000 to 3000 ft
1500m to 5 km
500 to 1000 ft
800 to 1500m
200 to 500 ft
< 800m
< 200 ft
Symbols :   Thunderstorms  Fog  Heavy snow  Heavy precipitations  Wind > 20 kt
SIGMETs :     Misc.  Thunderstorms  Icing  Turbulence  Mountain Waves  Volcanic Ashes






- Airport Elevation : 443 ft
- IATA code : SQQ


EYSA - Siauliai

CURRENT METAR :
  • 192220Z 21009KT 9999 BKN007 BKN012 OVC027 03/03 Q1008 R14L/29//95 R14R/29//95 GRN TEMPO BKN006 YLO

EXPIRED METARs :
  • 192150Z 20007KT 9999 FEW006 BKN009 BKN027 03/03 Q1008 R14L/29//95 R14R/29//95 GRN TEMPO BKN006 YLO
  • 192120Z 21008KT 9999 -DZ BKN007 BKN009 OVC013 04/03 Q1008 R14L/29//95 R14R/29//95 GRN NOSIG
  • 192050Z 21009KT 9000 -DZ SCT007 OVC009 04/03 Q1008 R14L/29//95 R14R/29//95 GRN NOSIG
  • 192020Z 20009KT 9999 -RA OVC008 04/03 Q1008 R14L/29//95 R14R/29//95 GRN NOSIG
  • 191950Z 19008KT 9999 -SHRA FEW007 BKN010CB OVC016 04/03 Q1008 R14L/29//95 R14R/29//95 GRN NOSIG

TAF TAF EYSA
Valid from the 19 at 21:00 until the 20 at 03:00 UTC


192001Z 1921/2003 VRB05KT 8000 BKN010
TEMPO 1921/2003 3000 SHRA BKN005 BKN015CB
TEMPO 2003/2006 3000 BR OVC005



MET'MAP, your aeronautical weather chart ! - Copyright ORBIFLY December 2007 - Disclaimer

ORBIFLY MET'MAP TEAM :

Programming & Development : Alexandra Zaïnal
Concept & original design : Baudouin d'Aumeries
Assistance for programming : Marc-Olivier Méhu
Technical & hardware support : Manuel Goepfert

Contact : metmap@orbifly.com




SOURCES & CREDITS :

   NOAA